11R weather

Brenham Municipal Airport
Brenham, Texas, United States

Public forecast

Using degrees Fahrenheit for public forecast. Weather courtesy of forecast.io.

Current aviation weather report (METAR) for Brenham Municipal Airport

Retrieved 2019/10/19 09:55 UTC (53 minutes ago):

K11R 190955Z AUTO 00000KT 4SM HZ OVC003 A2977 RMK AO2

Closest aviation forecast (TAF) to Brenham Municipal Airport

Closest forecast is Easterwood Field, 22.2 nm (41.1 km) N. Retrieved 2019/10/19 06:22 UTC (4 hours ago):

TAF KCLL 190520Z 1906/2006 12007KT P6SM SKC FM190900 16004KT 6SM BR BKN009 FM191000 17004KT 5SM BR BKN005 FM191400 20007KT P6SM SCT025 BKN030 FM191700 22009KT P6SM FEW028 BKN035 FM192000 24008KT P6SM FEW035 FEW060